Time;durP1;ratioP1;P1;durP2;ratioP2;P2;SDS_P1;SDS_P2;PMS_P1;PMS_P2;Temp;Humidity;BMP_temperature;BMP_pressure;BME280_temperature;BME280_humidity;BME280_pressure;Samples;Min_cycle;Max_cycle;Signal;HPM_P1;HPM_P2
2023/06/25 05:28:59;;;;;;;4.68;4.28;;;;;;;21.94;47.85;97474.13;6108944;22;1417261;-84
2023/06/25 05:31:25;;;;;;;5.10;4.60;;;;;;;22.04;47.49;97476.47;6128134;22;20283;-85
2023/06/25 05:51:48;;;;;;;4.80;4.35;;;;;;;23.04;47.15;97500.41;6232571;22;20613;-85
2023/06/25 05:54:14;;;;;;;4.70;4.30;;;;;;;23.18;46.62;97503.66;6140624;22;20140;-85
2023/06/25 05:56:39;;;;;;;5.05;4.50;;;;;;;23.21;46.44;97515.53;6133320;23;20697;-85
2023/06/25 05:59:05;;;;;;;5.22;4.72;;;;;;;23.10;46.29;97477.91;6101091;23;20259;-84
2023/06/25 06:01:30;;;;;;;5.40;4.78;;;;;;;23.52;45.19;97509.91;6141581;22;20238;-86
2023/06/25 06:03:56;;;;;;;5.28;4.72;;;;;;;23.42;44.79;97473.06;6153108;22;20187;-87
2023/06/25 06:06:23;;;;;;;4.80;4.40;;;;;;;23.50;44.55;97473.03;6114168;22;20217;-84
2023/06/25 06:11:24;;;;;;;4.72;4.32;;;;;;;24.11;44.73;97507.22;6222144;22;20116;-84
2023/06/25 06:13:49;;;;;;;5.72;5.22;;;;;;;24.14;44.19;97470.44;6151599;22;20226;-84
2023/06/25 06:16:15;;;;;;;6.22;4.68;;;;;;;24.34;44.52;97498.13;6146103;22;20143;-85
2023/06/25 06:18:41;;;;;;;5.05;4.63;;;;;;;24.42;43.87;97484.75;6170104;22;20307;-85
2023/06/25 06:21:09;;;;;;;5.25;4.75;;;;;;;24.76;44.03;97498.84;6167921;22;20201;-84
2023/06/25 06:23:34;;;;;;;5.43;4.90;;;;;;;24.70;43.44;97492.19;6158245;22;20259;-84
2023/06/25 06:26:00;;;;;;;4.53;4.13;;;;;;;24.84;42.88;97484.66;6138826;22;20210;-85
2023/06/25 06:28:25;;;;;;;5.20;4.80;;;;;;;25.12;42.36;97494.69;6178212;22;20217;-86
2023/06/25 06:30:51;;;;;;;4.53;4.20;;;;;;;25.30;42.04;97492.63;6137954;22;20127;-86
2023/06/25 06:33:16;;;;;;;4.88;4.40;;;;;;;25.41;41.89;97493.75;6163932;22;20223;-86
2023/06/25 06:35:42;;;;;;;4.88;4.30;;;;;;;25.49;41.91;97480.63;6161043;22;20210;-85
2023/06/25 06:38:07;;;;;;;4.80;4.40;;;;;;;25.80;42.06;97485.34;6194054;22;20259;-85
2023/06/25 06:43:08;;;;;;;4.30;4.00;;;;;;;26.19;40.15;97506.31;6223217;22;20101;-86
2023/06/25 06:45:33;;;;;;;4.95;4.53;;;;;;;26.56;40.30;97516.81;6137430;22;20143;-84
2023/06/25 06:47:58;;;;;;;4.35;3.85;;;;;;;26.44;39.90;97510.44;6126598;22;20326;-85
2023/06/25 06:58:09;;;;;;;4.65;4.30;;;;;;;26.98;38.78;97495.03;6225462;22;20163;-85
2023/06/25 07:03:10;;;;;;;4.63;4.22;;;;;;;27.45;37.57;97489.69;6212495;22;20097;-86
2023/06/25 07:05:35;;;;;;;4.65;4.25;;;;;;;27.65;38.06;97468.31;6157363;22;20724;-87
2023/06/25 07:13:11;;;;;;;4.78;4.47;;;;;;;27.93;36.95;97478.91;6237610;22;21650;-85
2023/06/25 07:15:37;;;;;;;5.07;4.57;;;;;;;27.98;36.57;97477.81;6197011;22;20255;-86
2023/06/25 07:18:02;;;;;;;5.05;4.55;;;;;;;28.26;36.41;97487.53;6198619;22;20189;-87
2023/06/25 07:20:28;;;;;;;5.00;4.60;;;;;;;28.33;36.66;97479.66;6165444;22;20253;-84
2023/06/25 07:22:53;;;;;;;4.93;4.53;;;;;;;28.92;36.15;97505.22;6209462;22;20015;-85
2023/06/25 07:33:04;;;;;;;4.40;4.00;;;;;;;29.82;32.08;97498.59;6231549;22;20193;-86
2023/06/25 07:35:29;;;;;;;4.60;4.20;;;;;;;29.87;31.03;97498.28;6136133;22;20217;-85
2023/06/25 07:37:55;;;;;;;3.92;3.63;;;;;;;29.92;30.97;97494.50;6175242;22;20166;-87
2023/06/25 07:40:20;;;;;;;4.72;4.43;;;;;;;30.13;30.90;97480.56;6183876;22;20151;-87
2023/06/25 07:53:06;;;;;;;4.22;3.92;;;;;;;30.88;30.88;97466.34;6248966;22;20122;-84
2023/06/25 07:58:07;;;;;;;3.97;3.67;;;;;;;31.26;28.78;97470.50;6242352;22;20126;-85
2023/06/25 08:03:05;;;;;;;4.40;4.00;;;;;;;31.46;28.71;97476.41;6239682;22;20236;-83
2023/06/25 08:05:30;;;;;;;4.45;4.13;;;;;;;31.00;27.45;97463.41;6137710;22;20298;-86
2023/06/25 08:07:56;;;;;;;4.10;3.80;;;;;;;31.36;26.67;97458.28;6150927;22;20152;-85
2023/06/25 08:10:23;;;;;;;4.07;3.78;;;;;;;31.37;27.14;97463.25;6144187;22;20127;-86
2023/06/25 08:12:59;;;;;;;4.78;4.38;;;;;;;31.66;27.28;97481.53;6217558;22;20762;-85
2023/06/25 08:15:24;;;;;;;5.15;4.38;;;;;;;31.88;26.85;97491.25;6143502;22;20229;-84
2023/06/25 08:17:50;;;;;;;4.07;3.78;;;;;;;32.08;26.21;97464.81;6140547;22;20263;-83
2023/06/25 08:20:15;;;;;;;4.57;4.28;;;;;;;32.07;25.89;97454.44;6120565;23;20185;-84
2023/06/25 08:22:41;;;;;;;4.32;4.03;;;;;;;32.28;26.62;97461.78;6107036;22;20116;-84
2023/06/25 08:25:07;;;;;;;4.45;4.15;;;;;;;32.66;26.64;97479.22;6168704;22;20183;-82
2023/06/25 08:27:33;;;;;;;4.70;4.30;;;;;;;32.54;26.35;97489.56;6070587;23;20154;-85
2023/06/25 08:29:59;;;;;;;4.90;4.50;;;;;;;32.34;26.77;97464.88;6108791;23;20216;-85
2023/06/25 08:32:24;;;;;;;4.97;4.57;;;;;;;32.23;25.89;97465.63;6133367;22;20260;-84
2023/06/25 08:34:49;;;;;;;5.07;4.57;;;;;;;31.93;25.61;97480.13;6079285;23;20172;-85
2023/06/25 08:37:15;;;;;;;4.93;4.53;;;;;;;31.91;25.30;97477.03;6080253;23;20146;-82
2023/06/25 08:39:40;;;;;;;4.35;3.88;;;;;;;31.89;24.98;97476.66;6080948;23;20211;-84
2023/06/25 08:42:06;;;;;;;4.28;3.88;;;;;;;31.49;25.38;97478.31;6085663;23;20197;-85
2023/06/25 08:47:07;;;;;;;4.47;4.07;;;;;;;32.44;26.16;97480.28;6168196;22;20262;-83
2023/06/25 08:52:09;;;;;;;4.53;4.22;;;;;;;32.75;25.72;97462.69;6230731;22;20179;-84
2023/06/25 08:54:34;;;;;;;4.18;3.88;;;;;;;32.76;25.83;97483.06;6202740;22;20239;-83
2023/06/25 08:57:00;;;;;;;4.50;4.13;;;;;;;32.83;24.79;97482.31;6179405;22;20122;-84
2023/06/25 08:59:28;;;;;;;4.53;4.22;;;;;;;32.95;25.42;97463.03;6167891;22;20408;-85
2023/06/25 09:01:53;;;;;;;4.60;4.30;;;;;;;32.82;23.94;97478.84;6164273;22;20308;-83
2023/06/25 09:04:19;;;;;;;4.43;4.13;;;;;;;32.94;25.29;97458.81;6139456;22;20300;-83
2023/06/25 09:06:44;;;;;;;4.43;4.03;;;;;;;33.17;24.61;97468.47;6179251;22;20073;-83
2023/06/25 09:09:10;;;;;;;4.43;4.03;;;;;;;33.26;24.69;97468.81;6179031;22;20167;-83
2023/06/25 09:11:40;;;;;;;4.28;3.97;;;;;;;33.28;23.69;97436.06;6169860;22;20212;-83
2023/06/25 09:14:06;;;;;;;4.38;4.07;;;;;;;33.70;24.80;97470.31;6148235;22;20086;-82
2023/06/25 09:16:32;;;;;;;3.95;3.72;;;;;;;33.50;22.70;97436.78;6173401;22;20249;-83
2023/06/25 09:19:00;;;;;;;4.22;3.92;;;;;;;33.47;23.30;97453.75;6147825;22;20169;-81
2023/06/25 09:21:38;;;;;;;4.13;3.83;;;;;;;33.68;23.77;97436.75;6173488;22;20118;-85
2023/06/25 09:24:18;;;;;;;4.15;3.75;;;;;;;33.76;23.69;97462.59;6169109;22;20325;-84
2023/06/25 09:26:46;;;;;;;4.30;4.00;;;;;;;33.78;23.53;97452.91;6146195;22;20331;-84
2023/06/25 09:29:15;;;;;;;4.47;4.18;;;;;;;33.94;23.18;97432.78;6142120;22;20324;-84
2023/06/25 09:31:42;;;;;;;4.80;4.40;;;;;;;33.94;23.67;97433.53;6139881;22;20006;-82
2023/06/25 09:34:08;;;;;;;4.43;4.03;;;;;;;33.70;22.25;97431.72;6164390;22;20181;-83
2023/06/25 09:36:35;;;;;;;4.25;3.95;;;;;;;33.85;22.93;97444.00;6179632;22;20371;-85
2023/06/25 09:39:03;;;;;;;4.80;4.40;;;;;;;33.35;23.32;97434.13;6140648;22;20449;-82
2023/06/25 09:41:28;;;;;;;4.53;4.13;;;;;;;33.49;22.90;97416.34;6148244;22;20169;-83
2023/06/25 09:43:56;;;;;;;5.43;4.45;;;;;;;33.71;23.43;97439.44;6142253;22;20225;-83
2023/06/25 09:46:22;;;;;;;4.97;4.57;;;;;;;33.95;22.28;97431.63;6170347;22;20189;-82
2023/06/25 09:48:51;;;;;;;4.30;4.00;;;;;;;34.02;22.18;97418.09;6163726;22;20248;-84
2023/06/25 09:51:17;;;;;;;4.05;3.75;;;;;;;34.45;22.81;97436.75;6133941;22;20248;-86
2023/06/25 09:53:48;;;;;;;4.85;4.45;;;;;;;34.06;21.55;97429.63;6175572;22;20100;-85
2023/06/25 09:56:16;;;;;;;4.30;4.00;;;;;;;34.24;21.94;97437.69;6157372;22;20192;-86
2023/06/25 09:58:43;;;;;;;4.57;4.28;;;;;;;34.30;23.26;97419.09;6126980;22;20315;-84
2023/06/25 10:01:09;;;;;;;4.95;4.55;;;;;;;34.81;21.46;97424.94;6181417;22;20189;-85
2023/06/25 10:03:35;;;;;;;4.63;4.32;;;;;;;34.46;20.90;97432.13;6137312;22;20239;-84
2023/06/25 10:06:02;;;;;;;4.70;4.40;;;;;;;34.39;21.68;97430.22;6112134;22;20217;-83
2023/06/25 10:08:27;;;;;;;4.93;4.57;;;;;;;34.66;22.82;97437.78;6114921;22;20073;-85
2023/06/25 10:11:00;;;;;;;4.50;4.20;;;;;;;35.23;21.98;97425.72;6165111;22;20252;-83
2023/06/25 10:16:04;;;;;;;4.18;3.78;;;;;;;35.14;21.58;97407.22;6229923;22;20104;-82
2023/06/25 10:18:39;;;;;;;4.95;4.45;;;;;;;34.78;22.02;97396.75;6205345;22;20175;-84
2023/06/25 10:21:04;;;;;;;4.22;3.90;;;;;;;34.94;21.44;97381.91;6166190;22;20161;-85
2023/06/25 10:23:30;;;;;;;4.53;4.13;;;;;;;34.90;19.62;97392.75;6139262;22;20227;-84
2023/06/25 10:25:57;;;;;;;4.85;4.55;;;;;;;34.98;20.59;97409.72;6146014;22;20394;-84
2023/06/25 10:28:34;;;;;;;4.50;4.20;;;;;;;35.37;21.36;97411.25;6217016;22;20161;-83
2023/06/25 10:31:11;;;;;;;5.18;4.68;;;;;;;35.86;20.89;97414.56;6173473;22;20169;-85
2023/06/25 10:33:37;;;;;;;5.22;4.75;;;;;;;35.59;21.42;97376.56;6175217;22;20277;-85
2023/06/25 10:36:06;;;;;;;4.88;4.47;;;;;;;36.02;19.42;97395.00;6145008;22;20174;-84
2023/06/25 10:38:32;;;;;;;5.55;4.75;;;;;;;36.26;20.73;97406.72;6151922;22;20212;-83
2023/06/25 10:40:58;;;;;;;4.60;4.30;;;;;;;35.92;19.10;97393.19;6204386;22;20333;-84
2023/06/25 10:43:23;;;;;;;5.30;4.80;;;;;;;35.62;19.70;97378.47;6150242;22;20031;-84
2023/06/25 10:45:50;;;;;;;5.07;4.57;;;;;;;36.05;20.33;97405.03;6152778;22;20325;-82
2023/06/25 10:48:16;;;;;;;4.95;4.65;;;;;;;36.18;20.89;97407.97;6175261;22;20275;-84
2023/06/25 10:50:44;;;;;;;5.70;5.20;;;;;;;35.78;19.87;97392.25;6142461;22;20464;-85
2023/06/25 10:53:15;;;;;;;5.18;4.68;;;;;;;35.53;19.60;97395.22;6171334;22;20190;-84
2023/06/25 10:55:52;;;;;;;5.22;4.82;;;;;;;35.87;20.09;97399.88;6199326;22;20878;-84
2023/06/25 10:58:20;;;;;;;5.05;4.75;;;;;;;35.83;20.33;97388.28;6146435;22;20292;-83
2023/06/25 11:00:53;;;;;;;5.00;4.70;;;;;;;36.06;20.04;97384.88;6147442;22;20050;-84
2023/06/25 11:03:18;;;;;;;6.03;5.45;;;;;;;35.70;20.88;97377.22;6128143;23;20246;-84
2023/06/25 11:05:46;;;;;;;4.95;4.55;;;;;;;36.08;20.37;97362.81;6108654;23;20336;-83
2023/06/25 11:08:12;;;;;;;5.22;4.82;;;;;;;35.79;19.72;97382.91;6075382;23;20444;-83
2023/06/25 11:10:38;;;;;;;5.45;4.97;;;;;;;35.91;19.80;97381.59;6110936;23;20250;-82
2023/06/25 11:13:04;;;;;;;5.75;5.35;;;;;;;35.69;21.02;97388.47;6131389;23;20343;-84
2023/06/25 11:15:33;;;;;;;5.25;4.85;;;;;;;35.47;20.21;97383.28;6104348;23;20300;-84
2023/06/25 11:17:59;;;;;;;5.40;5.00;;;;;;;35.16;20.67;97383.22;6111196;23;20131;-85
2023/06/25 11:20:26;;;;;;;4.80;4.50;;;;;;;35.10;20.19;97376.72;6097670;23;20196;-83
2023/06/25 11:22:52;;;;;;;5.28;4.80;;;;;;;34.93;20.08;97380.38;6074371;23;20259;-83
2023/06/25 11:25:20;;;;;;;4.90;4.60;;;;;;;34.96;20.49;97366.03;6091737;23;20160;-84
2023/06/25 11:27:46;;;;;;;4.30;4.00;;;;;;;34.99;21.26;97373.34;6131605;23;20255;-85
2023/06/25 11:30:12;;;;;;;4.97;4.68;;;;;;;34.60;20.60;97372.53;6136084;23;20270;-84
2023/06/25 11:35:19;;;;;;;5.10;4.60;;;;;;;34.18;21.50;97331.13;6216449;22;20271;-83
2023/06/25 11:37:52;;;;;;;4.78;4.38;;;;;;;34.12;21.75;97360.50;6137632;22;20166;-83
2023/06/25 11:40:25;;;;;;;5.82;5.43;;;;;;;33.41;22.11;97362.38;6197426;22;20181;-84
2023/06/25 11:42:51;;;;;;;4.75;4.45;;;;;;;32.98;22.70;97335.50;6162078;22;20088;-85
2023/06/25 11:45:18;;;;;;;5.28;4.97;;;;;;;33.17;21.18;97347.03;6162111;22;20139;-85
2023/06/25 11:47:54;;;;;;;5.47;5.07;;;;;;;32.99;21.51;97325.50;6176679;22;20295;-85
2023/06/25 11:50:23;;;;;;;5.88;5.30;;;;;;;32.93;21.82;97348.63;6146956;22;20257;-85
2023/06/25 11:52:52;;;;;;;4.88;4.45;;;;;;;32.41;22.39;97311.28;6136180;22;20187;-86
2023/06/25 11:55:18;;;;;;;5.35;4.88;;;;;;;32.32;23.28;97333.25;6101900;23;20159;-86
2023/06/25 11:57:45;;;;;;;5.10;4.60;;;;;;;32.37;22.74;97334.75;6108527;23;20183;-86
2023/06/25 12:00:11;;;;;;;4.78;4.38;;;;;;;32.51;22.69;97332.09;6093074;23;20199;-83
2023/06/25 12:02:44;;;;;;;4.53;4.13;;;;;;;32.34;22.85;97303.97;6113174;23;20224;-86
2023/06/25 12:05:10;;;;;;;5.30;4.80;;;;;;;32.45;22.39;97314.75;6101975;23;20173;-87
2023/06/25 12:07:36;;;;;;;5.25;4.85;;;;;;;32.58;22.78;97336.69;6101066;23;20249;-86
2023/06/25 12:10:02;;;;;;;4.88;4.53;;;;;;;32.64;22.78;97317.06;6126787;23;20265;-85
2023/06/25 12:12:28;;;;;;;4.63;4.30;;;;;;;32.52;21.48;97312.03;6127559;22;20514;-84
2023/06/25 12:14:53;;;;;;;5.05;4.57;;;;;;;32.69;21.58;97313.22;6154710;22;20159;-84
2023/06/25 12:17:19;;;;;;;4.65;4.32;;;;;;;32.67;20.76;97300.09;6136523;22;20267;-85
2023/06/25 12:19:44;;;;;;;4.32;3.92;;;;;;;32.74;20.46;97309.34;6105112;23;20223;-86
2023/06/25 12:24:45;;;;;;;4.70;4.30;;;;;;;32.58;21.95;97294.34;6262799;22;20027;-85
2023/06/25 12:27:10;;;;;;;4.53;4.22;;;;;;;32.82;21.57;97306.25;6170093;22;20155;-84
2023/06/25 12:29:36;;;;;;;4.50;4.10;;;;;;;32.80;20.91;97307.78;6107861;23;20237;-85
2023/06/25 12:32:01;;;;;;;4.30;4.00;;;;;;;32.33;21.67;97296.28;6102560;23;20229;-85
2023/06/25 12:34:28;;;;;;;4.20;3.90;;;;;;;32.65;21.77;97307.81;6190986;22;20198;-83
2023/06/25 12:36:53;;;;;;;4.78;3.83;;;;;;;32.61;21.24;97268.53;6181910;22;21026;-84
2023/06/25 12:39:19;;;;;;;4.38;4.07;;;;;;;32.87;21.90;97286.22;6192743;22;20189;-85
2023/06/25 12:41:44;;;;;;;4.30;4.00;;;;;;;33.19;21.81;97288.84;6179175;22;20228;-85
2023/06/25 12:44:09;;;;;;;9.52;3.88;;;;;;;33.45;20.80;97294.91;6148428;22;20186;-84
2023/06/25 12:46:35;;;;;;;4.70;4.30;;;;;;;32.99;20.61;97296.59;6144040;22;20080;-84
2023/06/25 12:49:00;;;;;;;4.53;4.13;;;;;;;32.97;21.02;97295.41;6141121;22;20161;-84
2023/06/25 12:51:26;;;;;;;4.22;3.85;;;;;;;33.16;21.61;97313.09;6146256;22;20135;-84
2023/06/25 12:53:52;;;;;;;4.72;4.32;;;;;;;33.04;21.39;97292.72;6159205;22;20192;-85
2023/06/25 12:56:18;;;;;;;4.68;4.28;;;;;;;32.91;20.29;97270.03;6128056;22;20156;-85
2023/06/25 12:58:43;;;;;;;4.85;4.47;;;;;;;32.97;20.83;97266.53;6151795;22;20263;-84
2023/06/25 13:06:20;;;;;;;4.90;4.50;;;;;;;32.95;21.07;97282.31;6235514;22;20270;-84
2023/06/25 13:08:45;;;;;;;4.53;4.13;;;;;;;32.85;20.62;97259.63;6143800;22;20227;-83
2023/06/25 13:11:11;;;;;;;5.10;4.70;;;;;;;32.78;21.14;97256.19;6141291;22;20563;-83
2023/06/25 13:13:36;;;;;;;4.47;4.18;;;;;;;32.82;21.79;97265.03;6123841;22;20223;-84
2023/06/25 13:16:02;;;;;;;4.15;3.85;;;;;;;32.83;21.44;97256.56;6074862;23;20145;-83
2023/06/25 13:18:27;;;;;;;4.35;3.95;;;;;;;32.69;20.76;97258.53;6081727;22;19996;-82
2023/06/25 13:20:53;;;;;;;4.05;3.75;;;;;;;32.67;21.00;97256.22;6129992;23;20171;-84
2023/06/25 13:23:18;;;;;;;4.97;4.03;;;;;;;32.70;21.09;97270.81;6114943;23;20096;-84
2023/06/25 13:28:18;;;;;;;5.00;4.60;;;;;;;32.34;21.68;97233.91;6236976;22;20224;-83
2023/06/25 13:30:45;;;;;;;4.65;4.35;;;;;;;32.56;22.39;97250.81;6141127;22;20306;-82
2023/06/25 13:33:11;;;;;;;4.40;4.10;;;;;;;32.24;21.30;97226.63;6191195;22;20166;-83
2023/06/25 13:38:15;;;;;;;4.30;4.00;;;;;;;32.37;21.35;97232.34;6240087;22;20164;-83
2023/06/25 13:40:40;;;;;;;4.65;4.20;;;;;;;32.34;21.90;97233.91;6160458;22;20145;-85
2023/06/25 13:43:08;;;;;;;5.65;4.50;;;;;;;32.24;21.28;97243.53;6136500;22;20147;-85
2023/06/25 13:45:33;;;;;;;4.75;4.13;;;;;;;32.34;21.98;97258.16;6165326;22;20007;-84
2023/06/25 13:47:59;;;;;;;4.55;4.15;;;;;;;32.09;21.31;97250.84;6137896;22;20211;-85
2023/06/25 13:50:24;;;;;;;4.25;3.85;;;;;;;32.18;21.33;97223.53;6159594;22;20166;-85
2023/06/25 13:52:50;;;;;;;4.45;4.15;;;;;;;32.26;21.26;97225.06;6137940;22;20654;-85
2023/06/25 13:55:16;;;;;;;4.40;4.10;;;;;;;32.20;20.83;97218.53;6103448;23;20084;-87
2023/06/25 13:57:42;;;;;;;4.15;3.75;;;;;;;32.42;21.10;97229.28;6141958;22;20140;-86
2023/06/25 14:00:09;;;;;;;4.63;4.30;;;;;;;32.62;20.67;97232.34;6178940;22;20123;-84
2023/06/25 14:02:34;;;;;;;3.95;3.65;;;;;;;32.49;21.28;97215.78;6162201;22;20228;-84
2023/06/25 14:05:00;;;;;;;4.70;4.30;;;;;;;32.28;20.59;97209.25;6133003;22;20727;-84
2023/06/25 14:07:25;;;;;;;4.80;4.40;;;;;;;32.39;20.71;97214.66;6125224;22;20288;-84
2023/06/25 14:09:52;;;;;;;4.68;4.28;;;;;;;32.42;20.87;97243.53;6193743;22;20080;-83
2023/06/25 14:12:18;;;;;;;4.07;3.78;;;;;;;32.65;19.49;97237.72;6128728;22;20674;-84
2023/06/25 14:14:43;;;;;;;4.35;4.05;;;;;;;32.29;20.22;97210.81;6164156;22;20146;-84
2023/06/25 14:22:18;;;;;;;4.78;4.38;;;;;;;32.90;20.51;97233.41;6223574;22;20213;-87
2023/06/25 14:24:44;;;;;;;4.63;4.32;;;;;;;32.57;20.59;97198.44;6170754;22;20015;-85
2023/06/25 14:27:09;;;;;;;4.28;3.92;;;;;;;32.88;21.05;97214.16;6151268;22;20896;-83
2023/06/25 14:29:35;;;;;;;4.22;3.90;;;;;;;32.93;20.15;97214.50;6174744;22;20182;-83
2023/06/25 14:32:04;;;;;;;4.00;3.70;;;;;;;32.91;20.37;97197.97;6136241;22;20222;-83
2023/06/25 14:34:29;;;;;;;4.40;4.07;;;;;;;32.76;19.69;97199.19;6149144;23;20182;-83
2023/06/25 14:36:55;;;;;;;4.55;4.15;;;;;;;32.84;20.75;97231.13;6106940;23;20170;-85
2023/06/25 14:39:20;;;;;;;4.40;4.00;;;;;;;32.57;19.41;97193.03;6102771;23;20174;-84
2023/06/25 14:41:45;;;;;;;4.43;4.13;;;;;;;32.56;19.72;97191.53;6117380;22;20233;-84
2023/06/25 14:44:12;;;;;;;4.30;3.90;;;;;;;32.16;21.13;97193.50;6152069;23;20205;-84
2023/06/25 14:49:12;;;;;;;4.20;3.90;;;;;;;32.43;20.89;97198.47;6136014;22;20253;-83
2023/06/25 14:54:13;;;;;;;4.53;4.13;;;;;;;32.29;22.38;97188.50;6210595;22;20186;-84
2023/06/25 14:56:38;;;;;;;4.60;4.30;;;;;;;32.20;23.05;97175.44;6171923;22;20181;-84
2023/06/25 14:59:04;;;;;;;5.10;4.60;;;;;;;32.05;22.91;97177.38;6127771;22;20643;-86
2023/06/25 15:01:29;;;;;;;5.10;4.70;;;;;;;32.27;22.58;97196.97;6122160;23;20183;-84
2023/06/25 15:03:54;;;;;;;4.63;4.22;;;;;;;32.13;23.25;97174.66;6167091;22;20236;-84
2023/06/25 15:06:20;;;;;;;4.38;4.00;;;;;;;32.37;22.78;97200.03;6141929;23;20187;-84
2023/06/25 15:08:45;;;;;;;4.85;4.45;;;;;;;32.40;22.14;97191.16;6134640;23;20139;-84
2023/06/25 15:11:11;;;;;;;5.03;4.57;;;;;;;32.25;22.44;97169.66;6121444;23;20144;-83
2023/06/25 15:13:36;;;;;;;5.63;5.13;;;;;;;32.33;21.49;97172.31;6101365;23;20146;-84
2023/06/25 15:16:02;;;;;;;5.60;4.43;;;;;;;32.20;22.07;97150.41;6158261;22;20221;-84
2023/06/25 15:18:28;;;;;;;4.85;4.50;;;;;;;32.17;22.56;97170.81;6196538;22;21077;-83
2023/06/25 15:20:53;;;;;;;5.28;4.88;;;;;;;32.41;22.67;97190.78;6138234;22;20057;-85
2023/06/25 15:23:19;;;;;;;4.80;4.40;;;;;;;32.08;22.46;97173.13;6137964;22;20244;-83
2023/06/25 15:25:44;;;;;;;4.43;4.13;;;;;;;32.25;22.46;97187.72;6196569;22;20203;-82
2023/06/25 15:30:44;;;;;;;4.82;4.43;;;;;;;32.19;23.14;97184.66;6218256;22;20665;-86
2023/06/25 15:33:10;;;;;;;4.70;4.30;;;;;;;32.17;22.53;97170.81;6155043;22;20262;-84
2023/06/25 15:35:35;;;;;;;4.93;4.53;;;;;;;32.19;22.87;97171.19;6131033;22;20273;-84
2023/06/25 15:38:01;;;;;;;4.75;4.30;;;;;;;32.18;22.58;97150.78;6155331;22;20262;-84
2023/06/25 15:40:27;;;;;;;4.53;4.22;;;;;;;32.33;23.49;97150.75;6148073;22;20100;-85
2023/06/25 15:42:53;;;;;;;5.43;4.93;;;;;;;32.24;23.25;97133.06;6151467;22;20166;-84
2023/06/25 15:45:18;;;;;;;4.57;4.18;;;;;;;32.23;23.47;97133.47;6121499;23;20285;-84
2023/06/25 15:47:44;;;;;;;4.65;4.35;;;;;;;32.38;23.16;97163.84;6093612;23;20505;-85
2023/06/25 15:50:10;;;;;;;4.45;4.05;;;;;;;32.24;22.43;97137.69;6155380;22;20362;-84
2023/06/25 15:52:35;;;;;;;4.00;3.70;;;;;;;32.23;22.06;97158.47;6159469;22;20289;-85
2023/06/25 15:55:00;;;;;;;4.93;4.47;;;;;;;32.15;22.03;97140.00;6159045;22;20161;-87
2023/06/25 15:57:26;;;;;;;4.25;3.95;;;;;;;32.22;21.97;97130.00;6193765;22;20200;-84
2023/06/25 15:59:51;;;;;;;4.82;4.43;;;;;;;32.27;21.74;97123.47;6127911;22;20265;-83
2023/06/25 16:02:17;;;;;;;4.47;4.18;;;;;;;32.21;22.47;97122.31;6155572;23;20203;-83
2023/06/25 16:04:42;;;;;;;4.75;4.22;;;;;;;32.30;22.58;97136.13;6117124;22;20973;-83
2023/06/25 16:09:38;;;;;;;4.28;3.97;;;;;;;32.15;22.18;97140.81;6192388;22;20368;-84
2023/06/25 16:12:04;;;;;;;4.68;4.38;;;;;;;32.12;22.14;97135.44;6127987;22;20250;-84
2023/06/25 16:17:04;;;;;;;4.78;4.38;;;;;;;32.45;21.91;97134.16;6218048;22;20741;-84
2023/06/25 16:19:29;;;;;;;5.13;4.63;;;;;;;32.27;21.96;97121.53;6136525;22;20237;-83
2023/06/25 16:21:55;;;;;;;4.57;4.25;;;;;;;32.36;21.62;97131.13;6173405;22;20016;-83
2023/06/25 16:24:20;;;;;;;5.40;4.45;;;;;;;32.28;22.86;97128.44;6134200;22;20185;-82
2023/06/25 16:26:46;;;;;;;5.03;4.53;;;;;;;32.20;21.70;97121.56;6138488;22;20169;-83
2023/06/25 16:29:11;;;;;;;4.20;3.90;;;;;;;32.16;23.17;97134.25;6134575;22;20233;-84
2023/06/25 16:31:37;;;;;;;4.72;4.32;;;;;;;32.22;21.88;97123.84;6136092;22;20252;-84
2023/06/25 16:34:02;;;;;;;4.43;4.07;;;;;;;32.24;22.01;97138.47;6159101;22;20263;-83
2023/06/25 16:36:28;;;;;;;4.32;4.03;;;;;;;32.17;22.46;97122.31;6166965;22;20155;-85
2023/06/25 16:38:53;;;;;;;5.13;4.72;;;;;;;32.16;22.09;97117.31;6136036;22;20212;-83
2023/06/25 16:41:18;;;;;;;4.00;3.70;;;;;;;32.27;21.87;97147.72;6142437;22;20182;-83
2023/06/25 16:46:12;;;;;;;4.32;4.00;;;;;;;32.01;22.76;97103.88;6205158;22;20665;-83
2023/06/25 16:48:38;;;;;;;4.85;4.45;;;;;;;32.09;22.39;97120.78;6134139;22;20119;-84
2023/06/25 16:51:04;;;;;;;4.85;4.45;;;;;;;32.02;22.72;97126.16;6131558;22;20135;-84
2023/06/25 16:53:29;;;;;;;4.75;4.40;;;;;;;31.91;22.92;97105.41;6155112;22;20320;-84
2023/06/25 16:55:55;;;;;;;4.97;4.57;;;;;;;32.01;22.67;97130.00;6124658;22;20215;-82
2023/06/25 16:58:20;;;;;;;4.30;4.00;;;;;;;32.06;23.09;97143.91;6147114;22;20213;-83
2023/06/25 17:00:46;;;;;;;4.95;4.55;;;;;;;32.01;23.39;97140.78;6193328;22;20230;-84
2023/06/25 17:03:11;;;;;;;4.88;4.40;;;;;;;31.98;22.83;97128.09;6176295;22;20072;-83
2023/06/25 17:05:36;;;;;;;4.88;4.47;;;;;;;31.85;22.71;97123.09;6160139;22;20447;-83
2023/06/25 17:08:02;;;;;;;4.72;4.30;;;;;;;31.85;22.86;97125.81;6170567;22;20208;-84
2023/06/25 17:10:27;;;;;;;5.07;4.68;;;;;;;31.89;22.96;97129.28;6191479;22;20622;-84
2023/06/25 17:12:53;;;;;;;4.75;4.43;;;;;;;31.93;22.79;97140.78;6135685;22;20490;-85
2023/06/25 17:15:18;;;;;;;4.20;3.90;;;;;;;31.79;22.16;97115.81;6176204;22;20101;-84
2023/06/25 17:17:44;;;;;;;4.65;4.35;;;;;;;31.81;23.01;97111.59;6200591;22;20195;-84
2023/06/25 17:20:09;;;;;;;4.80;4.40;;;;;;;31.86;22.67;97119.28;6136542;22;20226;-84
2023/06/25 17:22:35;;;;;;;4.50;4.13;;;;;;;31.86;22.72;97127.34;6151719;22;20218;-82
2023/06/25 17:25:00;;;;;;;4.80;4.40;;;;;;;31.87;22.52;97122.72;6185377;22;20471;-82
2023/06/25 17:27:26;;;;;;;5.03;4.63;;;;;;;31.85;23.58;97122.34;6182369;22;20212;-83
2023/06/25 17:29:52;;;;;;;4.82;4.43;;;;;;;31.79;23.28;97119.28;6182897;22;20255;-82
2023/06/25 17:32:18;;;;;;;4.80;4.40;;;;;;;31.86;23.25;97138.13;6182986;22;20166;-83
2023/06/25 17:34:43;;;;;;;3.97;3.67;;;;;;;31.76;22.93;97130.06;6210712;22;20226;-83
2023/06/25 17:37:09;;;;;;;4.75;4.35;;;;;;;31.80;23.17;97139.66;6123040;22;20181;-82
2023/06/25 17:39:35;;;;;;;5.30;4.22;;;;;;;31.63;23.58;97124.28;6146851;22;20118;-83
2023/06/25 17:42:00;;;;;;;4.85;4.22;;;;;;;31.81;23.66;97148.50;6159344;22;20288;-84
2023/06/25 17:44:25;;;;;;;4.55;4.20;;;;;;;31.64;23.32;97134.66;6181962;22;20221;-83
2023/06/25 17:46:51;;;;;;;4.70;4.30;;;;;;;31.68;24.53;97137.34;6124246;22;20190;-82
2023/06/25 17:49:17;;;;;;;5.03;4.63;;;;;;;31.55;24.14;97139.66;6186334;22;20507;-82
2023/06/25 17:51:42;;;;;;;4.53;4.13;;;;;;;31.47;23.90;97138.09;6161405;22;20256;-82
2023/06/25 17:54:07;;;;;;;4.50;4.10;;;;;;;31.46;24.65;97150.78;6127917;22;20171;-83
2023/06/25 17:56:33;;;;;;;4.75;4.35;;;;;;;31.37;24.04;97145.75;6161954;22;20292;-82
2023/06/25 17:58:58;;;;;;;4.43;4.05;;;;;;;31.25;23.91;97130.00;6176776;22;20197;-82
2023/06/25 18:01:24;;;;;;;4.40;4.10;;;;;;;31.22;24.38;97138.81;6126810;22;20347;-82
2023/06/25 18:03:50;;;;;;;4.10;3.80;;;;;;;31.23;24.80;97153.06;6151511;22;20188;-82
2023/06/25 18:06:15;;;;;;;4.78;4.38;;;;;;;31.12;24.73;97142.25;6125673;22;20033;-82
2023/06/25 18:08:41;;;;;;;4.57;4.18;;;;;;;31.04;25.38;97141.47;6153143;22;20270;-82
2023/06/25 18:11:20;;;;;;;4.20;3.90;;;;;;;31.10;24.64;97145.34;6153244;22;20457;-82
2023/06/25 18:13:47;;;;;;;5.80;4.32;;;;;;;30.94;25.57;97134.16;6163509;22;20411;-83
2023/06/25 18:16:13;;;;;;;5.10;4.70;;;;;;;30.78;24.80;97132.53;6162938;22;20182;-82
2023/06/25 18:18:42;;;;;;;4.50;4.10;;;;;;;30.76;25.04;97126.78;6153223;22;20458;-82
2023/06/25 18:21:08;;;;;;;4.40;4.05;;;;;;;30.70;25.11;97140.97;6153362;22;20322;-82
2023/06/25 18:23:33;;;;;;;4.85;4.45;;;;;;;30.57;25.76;97119.00;6153450;22;20484;-82
2023/06/25 18:25:59;;;;;;;4.25;3.95;;;;;;;30.58;25.50;97139.38;6179037;22;20401;-82
2023/06/25 18:28:25;;;;;;;4.50;4.10;;;;;;;30.50;26.05;97138.56;6128602;22;20615;-82
2023/06/25 18:30:50;;;;;;;5.20;4.72;;;;;;;30.44;25.48;97132.78;6188802;22;20258;-82
2023/06/25 18:33:18;;;;;;;4.22;3.92;;;;;;;30.38;25.92;97130.84;6153723;22;20080;-82
2023/06/25 18:35:43;;;;;;;4.93;4.53;;;;;;;30.31;25.97;97128.09;6163346;22;20174;-81
2023/06/25 18:38:10;;;;;;;4.60;4.28;;;;;;;30.31;25.67;97136.91;6128153;22;20296;-81
2023/06/25 18:40:35;;;;;;;4.25;3.95;;;;;;;30.24;26.33;97128.81;6153532;22;20368;-82
2023/06/25 18:43:01;;;;;;;4.40;4.00;;;;;;;30.12;25.87;97129.13;6128199;22;20600;-82